Meteo18 Weather Cam more information Meteo18 Weather Cam


Thunder radar more information blitzortung!


Rain radar more information rain snow radar



Nearby METAR Reports

   
EBAW - Antwerp
Updated: 14-08-2018 22:50
Clear  
Clear  
   Wind: West 9.3 km/h
Wind: West 9.3 km/h
Temperature: 19°C
Dew Point: 13°C
Humidity: 68%
Barometer: 1018 hPa
Visibility: More than 10 km
Cloud details: Clear
EBAW 142050Z 26005KT CAVOK 19/13 Q1018 NOSIG
EBLG - Li├Ęge
Updated: 14-08-2018 22:50
Clear  
Clear  
   Wind: varies 3.7 km/h
Wind: varies 3.7 km/h
Temperature: 18°C
Dew Point: 13°C
Humidity: 73%
Barometer: 1019 hPa
Visibility: More than 10 km
Cloud details: Clear
EBLG 142050Z VRB02KT CAVOK 18/13 Q1019 NOSIG
EBCV - Mons/Bergen
Updated: 14-08-2018 22:55
Few Clouds  
Few Clouds  
   Wind: WSW 9.3 km/h
Wind: WSW 9.3 km/h
Temperature: 18°C
Dew Point: 13°C
Humidity: 73%
Barometer: 1019 hPa
Clouds: Few Clouds
Visibility: More than 10 km
Cloud details: Few Clouds 4800 ft
EBCV 142055Z AUTO 24005KT 9999 FEW048/// 18/13 Q1019 BLU
EHBK - Maastricht
Updated: 14-08-2018 22:55
Partly Cloudy  
Partly Cloudy  
   Wind: varies 3.7 km/h
Wind: varies 3.7 km/h
Temperature: 17°C
Dew Point: 14°C
Humidity: 83%
Barometer: 1018 hPa
Clouds: Partly Cloudy
Visibility: More than 10 km
Cloud details: Partly Cloudy 3600 ft,
Partly Cloudy 4200 ft
EHBK 142055Z AUTO VRB02KT 9999 SCT036 SCT042 17/14 Q1018 NOSIG
ELLX - Luxemburg
Updated: 14-08-2018 22:50
Few Clouds  
Few Clouds  
   Wind: varies 3.7 km/h
Wind: varies 3.7 km/h
Temperature: 17°C
Dew Point: 14°C
Humidity: 83%
Barometer: 1020 hPa
Clouds: Few Clouds
Visibility: More than 10 km
Cloud details: Few Clouds 4000 ft
ELLX 142050Z VRB02KT 9999 FEW040 17/14 Q1020 NOSIG
EBOS - Oostende
Updated: 14-08-2018 22:50
Partly Cloudy  
Partly Cloudy  
   Wind: SSW 11.1 km/h
Wind: SSW 11.1 km/h
Temperature: 16°C
Dew Point: 13°C
Humidity: 83%
Barometer: 1018 hPa
Clouds: Partly Cloudy
Visibility: More than 10 km
Cloud details: Partly Cloudy 4800 ft
EBOS 142050Z 21006KT 9999 SCT048 16/13 Q1018 NOSIG

Script developed by  Saratoga-weather.org Adapted for the template by  Weerstation Leuven

You find our weather info also at:

Weather Underground

Equipment we use:

Weather-station
Davis Vue

Weather-program
Meteobridge

Weather-server
Raspberry PI 2 B+

Provider
1 and 1

Davis Vue

Meteobridge

Raspberry PI 2 B+

1 and 1